STAZIONE METEO DI BARCELLONA P.G. CENTRO
Dati campionati ogni minuto da Consolle Davis Vantage Pro 2
ed inviati alla rete mediante server Anemos WDS5 wview



Barcellona P.G. Ovest  Barcellona P.G. Ovest


Marinello - Patti  Marinello - Patti


Thunder radar more information blitzortung!


Rain radar  rain snow radar



Notice: Undefined offset: 0 in /web/htdocs/www.barcellonameteo.it/home/weather28/wsSideColom.php on line 200

altri nostri siti meteo:

Rete NOAA MADIS

Italia Meteo Network

Pomeziameteo

Albisolameteo



Vento Inizio validità dal: 20-09-2017 08:00 Fino: 18:59 Allerta per: Vento Livello: Arancione info button
english:
No Special Awareness Required BE PREPARED. Take precautions and keep up to date with the latest weather forecast. Expect some disruption to daily routines and BE PREPARED for disruption to outdoor activities.

italiano:
Nessun Avviso ESSERE PREPARATI. Prendere le dovute precauzioni e tenersi aggiornati con le ultime previsioni del tempo. Aspettarsi qualche interruzione delle normali attività quotidiane ed essere pronti per interruzione delle attività all'aria aperta. 

Report METAR

   
LICF - Barcellona Pozzo di Gotto
Dati ricevuti: 20-09-2017 17:55
Parzialmente nuvoloso  
Parzialmente nuvoloso  
   Vento: NO 14.8 km/h
Vento: NO 14.8 km/h
Temperatura: 22°C
P.to Rugiada: 8°C
Umidità: 41%
Barometro: 1014 hPa
Nuvole: Parzialmente nuvoloso
Visibilità: oltre 10 km
dettagli cloud: Parzialmente nuvoloso 1219.2 m
LICF 201555Z 31008KT 9999 SCT040 22/08 Q1014 RMK BKN QUK 2 QUL 0 VIS MAR 20 KM MON E CIME INC NC MON W LIB NC VIS MIN 9999
LICC - Catania
Dati ricevuti: 20-09-2017 17:50
Poche nuvole  
Poche nuvole  
   Vento: NO 31.5 km/h
Vento: NO 31.5 km/h
Temperatura: 26°C
P.to Rugiada: 1°C
Umidità: 20%
Barometro: 1014 hPa
Nuvole: Poche nuvole
Visibilità: oltre 10 km
dettagli cloud: Poche nuvole 1219.2 m
LICC 201550Z 31017KT 9999 FEW040 26/01 Q1014
LICJ - Palermo
Dati ricevuti: 20-09-2017 18:20
Parzialmente nuvoloso  
Parzialmente nuvoloso  
   Vento: W 27.8 km/h
Vento: W 27.8 km/h
Temperatura: 22°C
P.to Rugiada: 13°C
Umidità: 57%
Barometro: 1017 hPa
Nuvole: Parzialmente nuvoloso
Visibilità: oltre 10 km
dettagli cloud: Parzialmente nuvoloso 914.4 m
LICJ 201620Z 29015KT 9999 SCT030 22/13 Q1017
LICF - Messina
Dati ricevuti: 20-09-2017 17:55
Parzialmente nuvoloso  
Parzialmente nuvoloso  
   Vento: NO 14.8 km/h
Vento: NO 14.8 km/h
Temperatura: 22°C
P.to Rugiada: 8°C
Umidità: 41%
Barometro: 1014 hPa
Nuvole: Parzialmente nuvoloso
Visibilità: oltre 10 km
dettagli cloud: Parzialmente nuvoloso 1219.2 m
LICF 201555Z 31008KT 9999 SCT040 22/08 Q1014 RMK BKN QUK 2 QUL 0 VIS MAR 20 KM MON E CIME INC NC MON W LIB NC VIS MIN 9999
LICC - Milazzo
Dati ricevuti: 20-09-2017 17:50
Poche nuvole  
Poche nuvole  
   Vento: NO 31.5 km/h
Vento: NO 31.5 km/h
Temperatura: 26°C
P.to Rugiada: 1°C
Umidità: 20%
Barometro: 1014 hPa
Nuvole: Poche nuvole
Visibilità: oltre 10 km
dettagli cloud: Poche nuvole 1219.2 m
LICC 201550Z 31017KT 9999 FEW040 26/01 Q1014
LICC - Terme Vigliatore
Dati ricevuti: 20-09-2017 17:50
Poche nuvole  
Poche nuvole  
   Vento: NO 31.5 km/h
Vento: NO 31.5 km/h
Temperatura: 26°C
P.to Rugiada: 1°C
Umidità: 20%
Barometro: 1014 hPa
Nuvole: Poche nuvole
Visibilità: oltre 10 km
dettagli cloud: Poche nuvole 1219.2 m
LICC 201550Z 31017KT 9999 FEW040 26/01 Q1014
LICT - Trapani
Dati ricevuti: 20-09-2017 17:55
Poche nuvole  
Poche nuvole  
   Vento: W 25.9 km/h
Vento: W 25.9 km/h
Temperatura: 24°C
P.to Rugiada: 13°C
Umidità: 50%
Barometro: 1017 hPa
Nuvole: Poche nuvole
Visibilità: oltre 10 km
dettagli cloud: Poche nuvole 701 m
LICT 201555Z 30014KT 9999 FEW023 24/13 Q1017
  

Script sviluppato da  Saratoga-weather.org Adattato per il modello da  Weerstation Leuven

Potete trovare le nostre info meteo anche a:

European Weather Network

Weather Underground

AWEKAS

Citizen Weather Observer Program (CWOP)

HAMweather, WeatherForYou, PWS Weather

Strumentazione usata:

Stazione meteo
Davis VP2

Programma gestore dati meteo
WVIEW

Server per i dati meteo
WDS5 Ecoblack

Davis VP2

WVIEW

WDS5 Ecoblack